Terminal Aerodrome Forecast
Issued by NWS

Home | Current Version | Previous Version | Text Only | Print | Product List | Glossary On
Versions: 1 2 3 4 5 6 7 8 9 10 11 12
000
FTUS45 KFGZ 260500
TAFPRC
TAF
KPRC 260535Z 2606/2706 VRB04KT P6SM SCT250
     FM261800 14008KT P6SM SCT090 BKN200
     FM270200 VRB03KT 5SM -SHRA BKN035 OVC060=

USA.gov is the U.S. government's official web portal to all federal, state and local government web resources and services.